sensor_id;sensor_type;location;lat;lon;timestamp;temperature;humidity
3156;DHT22;1588;50.892;7.082;2023-06-22T00:00:03;20.70;99.90
3156;DHT22;1588;50.892;7.082;2023-06-22T00:05:10;20.70;99.90
3156;DHT22;1588;50.892;7.082;2023-06-22T00:10:13;20.60;99.90
3156;DHT22;1588;50.892;7.082;2023-06-22T00:15:15;20.60;99.90
3156;DHT22;1588;50.892;7.082;2023-06-22T00:20:19;20.60;99.90
3156;DHT22;1588;50.892;7.082;2023-06-22T00:25:21;20.50;99.90
3156;DHT22;1588;50.892;7.082;2023-06-22T00:30:23;20.50;99.90
3156;DHT22;1588;50.892;7.082;2023-06-22T00:35:27;20.50;99.90
3156;DHT22;1588;50.892;7.082;2023-06-22T00:40:31;20.50;99.90
3156;DHT22;1588;50.892;7.082;2023-06-22T00:45:34;20.50;99.90
3156;DHT22;1588;50.892;7.082;2023-06-22T00:50:37;20.40;99.90
3156;DHT22;1588;50.892;7.082;2023-06-22T00:55:41;20.50;99.90
3156;DHT22;1588;50.892;7.082;2023-06-22T01:00:46;20.50;99.90
3156;DHT22;1588;50.892;7.082;2023-06-22T01:05:50;20.50;99.90
3156;DHT22;1588;50.892;7.082;2023-06-22T01:11:00;20.50;99.90
3156;DHT22;1588;50.892;7.082;2023-06-22T01:16:05;20.50;99.90
3156;DHT22;1588;50.892;7.082;2023-06-22T01:21:15;20.50;99.90
3156;DHT22;1588;50.892;7.082;2023-06-22T01:26:20;20.50;99.90
3156;DHT22;1588;50.892;7.082;2023-06-22T01:31:29;20.50;99.90
3156;DHT22;1588;50.892;7.082;2023-06-22T01:36:32;20.40;99.90
3156;DHT22;1588;50.892;7.082;2023-06-22T01:41:37;20.40;99.90
3156;DHT22;1588;50.892;7.082;2023-06-22T01:46:41;20.30;99.90
3156;DHT22;1588;50.892;7.082;2023-06-22T01:51:44;20.20;99.90
3156;DHT22;1588;50.892;7.082;2023-06-22T01:56:46;20.20;99.90
3156;DHT22;1588;50.892;7.082;2023-06-22T02:01:54;20.10;99.90
3156;DHT22;1588;50.892;7.082;2023-06-22T02:06:58;20.10;99.90
3156;DHT22;1588;50.892;7.082;2023-06-22T02:12:02;20.10;99.90
3156;DHT22;1588;50.892;7.082;2023-06-22T02:17:08;20.10;99.90
3156;DHT22;1588;50.892;7.082;2023-06-22T02:22:11;20.10;99.90
3156;DHT22;1588;50.892;7.082;2023-06-22T02:27:13;20.00;99.90
3156;DHT22;1588;50.892;7.082;2023-06-22T02:32:17;20.00;99.90
3156;DHT22;1588;50.892;7.082;2023-06-22T02:37:19;20.00;99.90
3156;DHT22;1588;50.892;7.082;2023-06-22T02:42:21;19.80;99.90
3156;DHT22;1588;50.892;7.082;2023-06-22T02:47:25;19.90;99.90
3156;DHT22;1588;50.892;7.082;2023-06-22T02:52:27;19.90;99.90
3156;DHT22;1588;50.892;7.082;2023-06-22T02:57:30;19.90;99.90
3156;DHT22;1588;50.892;7.082;2023-06-22T03:02:33;19.90;99.90
3156;DHT22;1588;50.892;7.082;2023-06-22T03:07:36;19.90;99.90
3156;DHT22;1588;50.892;7.082;2023-06-22T03:12:38;19.80;99.90
3156;DHT22;1588;50.892;7.082;2023-06-22T03:17:42;19.80;99.90
3156;DHT22;1588;50.892;7.082;2023-06-22T03:22:44;19.80;99.90
3156;DHT22;1588;50.892;7.082;2023-06-22T03:27:47;19.80;99.90
3156;DHT22;1588;50.892;7.082;2023-06-22T03:32:51;19.70;99.90
3156;DHT22;1588;50.892;7.082;2023-06-22T03:37:54;19.60;99.90
3156;DHT22;1588;50.892;7.082;2023-06-22T03:42:56;19.50;99.90
3156;DHT22;1588;50.892;7.082;2023-06-22T03:48:00;19.50;99.90
3156;DHT22;1588;50.892;7.082;2023-06-22T03:53:03;19.60;99.90
3156;DHT22;1588;50.892;7.082;2023-06-22T03:58:05;19.70;99.90
3156;DHT22;1588;50.892;7.082;2023-06-22T04:03:08;19.70;99.90
3156;DHT22;1588;50.892;7.082;2023-06-22T04:08:13;19.70;99.90
3156;DHT22;1588;50.892;7.082;2023-06-22T04:13:16;19.70;99.90
3156;DHT22;1588;50.892;7.082;2023-06-22T04:18:19;19.80;99.90
3156;DHT22;1588;50.892;7.082;2023-06-22T04:23:22;20.00;99.90
3156;DHT22;1588;50.892;7.082;2023-06-22T04:28:24;20.10;99.90
3156;DHT22;1588;50.892;7.082;2023-06-22T04:33:28;20.20;99.90
3156;DHT22;1588;50.892;7.082;2023-06-22T04:38:31;20.20;99.90
3156;DHT22;1588;50.892;7.082;2023-06-22T04:43:34;20.20;99.90
3156;DHT22;1588;50.892;7.082;2023-06-22T04:48:38;20.20;99.90
3156;DHT22;1588;50.892;7.082;2023-06-22T04:53:40;20.30;99.90
3156;DHT22;1588;50.892;7.082;2023-06-22T04:58:42;20.40;99.90
3156;DHT22;1588;50.892;7.082;2023-06-22T05:03:46;20.50;99.90
3156;DHT22;1588;50.892;7.082;2023-06-22T05:08:48;20.50;99.90
3156;DHT22;1588;50.892;7.082;2023-06-22T05:13:50;20.50;99.90
3156;DHT22;1588;50.892;7.082;2023-06-22T05:18:55;20.60;99.90
3156;DHT22;1588;50.892;7.082;2023-06-22T05:23:57;20.80;99.90
3156;DHT22;1588;50.892;7.082;2023-06-22T05:29:02;21.00;99.90
3156;DHT22;1588;50.892;7.082;2023-06-22T05:34:06;21.20;99.90
3156;DHT22;1588;50.892;7.082;2023-06-22T05:39:11;21.40;99.90
3156;DHT22;1588;50.892;7.082;2023-06-22T05:44:14;21.80;99.90
3156;DHT22;1588;50.892;7.082;2023-06-22T05:49:18;22.00;99.90
3156;DHT22;1588;50.892;7.082;2023-06-22T05:54:22;22.00;99.90
3156;DHT22;1588;50.892;7.082;2023-06-22T05:59:25;22.20;99.90
3156;DHT22;1588;50.892;7.082;2023-06-22T06:04:28;22.50;99.90
3156;DHT22;1588;50.892;7.082;2023-06-22T06:09:31;22.60;99.90
3156;DHT22;1588;50.892;7.082;2023-06-22T06:14:33;22.70;99.90
3156;DHT22;1588;50.892;7.082;2023-06-22T06:19:37;22.70;99.90
3156;DHT22;1588;50.892;7.082;2023-06-22T06:24:39;22.80;99.90
3156;DHT22;1588;50.892;7.082;2023-06-22T06:29:44;22.90;99.90
3156;DHT22;1588;50.892;7.082;2023-06-22T06:34:50;23.00;99.90
3156;DHT22;1588;50.892;7.082;2023-06-22T06:39:53;23.20;99.90
3156;DHT22;1588;50.892;7.082;2023-06-22T06:44:55;23.20;99.90
3156;DHT22;1588;50.892;7.082;2023-06-22T06:49:58;23.20;99.90
3156;DHT22;1588;50.892;7.082;2023-06-22T06:55:01;23.20;99.90
3156;DHT22;1588;50.892;7.082;2023-06-22T07:00:06;23.40;99.90
3156;DHT22;1588;50.892;7.082;2023-06-22T07:05:13;23.90;99.90
3156;DHT22;1588;50.892;7.082;2023-06-22T07:10:16;24.70;99.90
3156;DHT22;1588;50.892;7.082;2023-06-22T07:15:19;25.00;99.90
3156;DHT22;1588;50.892;7.082;2023-06-22T07:20:22;25.30;99.90
3156;DHT22;1588;50.892;7.082;2023-06-22T07:25:25;25.40;99.90
3156;DHT22;1588;50.892;7.082;2023-06-22T07:30:27;26.30;99.90
3156;DHT22;1588;50.892;7.082;2023-06-22T07:35:31;25.80;99.90
3156;DHT22;1588;50.892;7.082;2023-06-22T07:40:33;25.40;99.90
3156;DHT22;1588;50.892;7.082;2023-06-22T07:45:38;25.30;99.90
3156;DHT22;1588;50.892;7.082;2023-06-22T07:50:42;25.80;99.90
3156;DHT22;1588;50.892;7.082;2023-06-22T07:55:45;26.10;99.90
3156;DHT22;1588;50.892;7.082;2023-06-22T08:00:47;26.60;99.90
3156;DHT22;1588;50.892;7.082;2023-06-22T08:05:51;26.90;99.90
3156;DHT22;1588;50.892;7.082;2023-06-22T08:10:54;27.70;99.90
3156;DHT22;1588;50.892;7.082;2023-06-22T08:15:56;27.60;99.90
3156;DHT22;1588;50.892;7.082;2023-06-22T08:21:00;27.30;99.90
3156;DHT22;1588;50.892;7.082;2023-06-22T08:26:03;27.60;99.90
3156;DHT22;1588;50.892;7.082;2023-06-22T08:31:05;28.20;99.90
3156;DHT22;1588;50.892;7.082;2023-06-22T08:36:09;28.90;99.90
3156;DHT22;1588;50.892;7.082;2023-06-22T08:41:12;28.90;99.90
3156;DHT22;1588;50.892;7.082;2023-06-22T08:46:14;28.80;99.90
3156;DHT22;1588;50.892;7.082;2023-06-22T08:51:22;29.00;99.90
3156;DHT22;1588;50.892;7.082;2023-06-22T08:56:24;29.50;99.90
3156;DHT22;1588;50.892;7.082;2023-06-22T09:01:27;29.10;99.90
3156;DHT22;1588;50.892;7.082;2023-06-22T09:06:31;28.30;99.90
3156;DHT22;1588;50.892;7.082;2023-06-22T09:11:34;27.90;99.90
3156;DHT22;1588;50.892;7.082;2023-06-22T09:16:36;27.70;99.90
3156;DHT22;1588;50.892;7.082;2023-06-22T09:21:43;27.80;99.90
3156;DHT22;1588;50.892;7.082;2023-06-22T09:26:45;27.90;99.90
3156;DHT22;1588;50.892;7.082;2023-06-22T09:31:47;27.90;99.90
3156;DHT22;1588;50.892;7.082;2023-06-22T09:36:51;28.00;99.90
3156;DHT22;1588;50.892;7.082;2023-06-22T09:41:54;28.30;99.90
3156;DHT22;1588;50.892;7.082;2023-06-22T09:46:56;28.60;99.90
3156;DHT22;1588;50.892;7.082;2023-06-22T09:52:01;29.10;99.90
3156;DHT22;1588;50.892;7.082;2023-06-22T09:57:03;29.30;99.90
3156;DHT22;1588;50.892;7.082;2023-06-22T10:02:06;28.90;99.90
3156;DHT22;1588;50.892;7.082;2023-06-22T10:07:10;28.50;99.90
3156;DHT22;1588;50.892;7.082;2023-06-22T10:12:13;28.10;99.90
3156;DHT22;1588;50.892;7.082;2023-06-22T10:17:15;27.70;99.90
3156;DHT22;1588;50.892;7.082;2023-06-22T10:22:19;27.30;99.90
3156;DHT22;1588;50.892;7.082;2023-06-22T10:27:22;26.90;99.90
3156;DHT22;1588;50.892;7.082;2023-06-22T10:32:24;26.60;99.90
3156;DHT22;1588;50.892;7.082;2023-06-22T10:37:27;26.30;99.90
3156;DHT22;1588;50.892;7.082;2023-06-22T10:42:30;25.80;99.90
3156;DHT22;1588;50.892;7.082;2023-06-22T10:47:32;25.30;99.90
3156;DHT22;1588;50.892;7.082;2023-06-22T10:52:36;24.90;99.90
3156;DHT22;1588;50.892;7.082;2023-06-22T10:57:38;24.60;99.90
3156;DHT22;1588;50.892;7.082;2023-06-22T11:02:44;24.40;99.90
3156;DHT22;1588;50.892;7.082;2023-06-22T11:07:47;24.10;99.90
3156;DHT22;1588;50.892;7.082;2023-06-22T11:18:48;23.70;99.90
3156;DHT22;1588;50.892;7.082;2023-06-22T11:23:53;23.20;99.90
3156;DHT22;1588;50.892;7.082;2023-06-22T11:28:58;23.00;99.90
3156;DHT22;1588;50.892;7.082;2023-06-22T11:34:00;23.10;99.90
3156;DHT22;1588;50.892;7.082;2023-06-22T11:39:08;23.10;99.90
3156;DHT22;1588;50.892;7.082;2023-06-22T11:44:29;23.20;99.90
3156;DHT22;1588;50.892;7.082;2023-06-22T11:49:31;23.00;99.90
3156;DHT22;1588;50.892;7.082;2023-06-22T11:54:35;23.30;99.90
3156;DHT22;1588;50.892;7.082;2023-06-22T11:59:39;23.90;99.90
3156;DHT22;1588;50.892;7.082;2023-06-22T12:04:42;24.60;99.90
3156;DHT22;1588;50.892;7.082;2023-06-22T12:09:45;25.50;99.90
3156;DHT22;1588;50.892;7.082;2023-06-22T12:14:48;25.50;99.90
3156;DHT22;1588;50.892;7.082;2023-06-22T12:19:50;25.10;99.90
3156;DHT22;1588;50.892;7.082;2023-06-22T12:24:54;24.70;99.90
3156;DHT22;1588;50.892;7.082;2023-06-22T12:29:57;24.50;99.90
3156;DHT22;1588;50.892;7.082;2023-06-22T12:34:59;24.20;99.90
3156;DHT22;1588;50.892;7.082;2023-06-22T12:40:04;24.10;99.90
3156;DHT22;1588;50.892;7.082;2023-06-22T12:45:08;24.60;99.90
3156;DHT22;1588;50.892;7.082;2023-06-22T12:50:11;25.20;99.90
3156;DHT22;1588;50.892;7.082;2023-06-22T12:55:15;25.70;99.90
3156;DHT22;1588;50.892;7.082;2023-06-22T13:00:18;25.80;99.90
3156;DHT22;1588;50.892;7.082;2023-06-22T13:05:21;26.00;99.90
3156;DHT22;1588;50.892;7.082;2023-06-22T13:10:26;25.50;99.90
3156;DHT22;1588;50.892;7.082;2023-06-22T13:15:29;26.00;99.90
3156;DHT22;1588;50.892;7.082;2023-06-22T13:20:31;26.30;99.90
3156;DHT22;1588;50.892;7.082;2023-06-22T13:25:36;26.40;99.90
3156;DHT22;1588;50.892;7.082;2023-06-22T13:30:38;26.50;99.90
3156;DHT22;1588;50.892;7.082;2023-06-22T13:35:40;26.80;99.90
3156;DHT22;1588;50.892;7.082;2023-06-22T13:40:45;26.80;99.90
3156;DHT22;1588;50.892;7.082;2023-06-22T13:45:48;26.90;99.90
3156;DHT22;1588;50.892;7.082;2023-06-22T13:50:54;26.60;99.90
3156;DHT22;1588;50.892;7.082;2023-06-22T13:55:58;26.70;99.90
3156;DHT22;1588;50.892;7.082;2023-06-22T14:01:00;26.70;99.90
3156;DHT22;1588;50.892;7.082;2023-06-22T14:06:02;26.90;99.90
3156;DHT22;1588;50.892;7.082;2023-06-22T14:11:06;26.90;99.90
3156;DHT22;1588;50.892;7.082;2023-06-22T14:16:09;26.70;99.90
3156;DHT22;1588;50.892;7.082;2023-06-22T14:21:12;26.30;99.90
3156;DHT22;1588;50.892;7.082;2023-06-22T14:26:16;26.00;99.90
3156;DHT22;1588;50.892;7.082;2023-06-22T14:31:19;26.00;99.90
3156;DHT22;1588;50.892;7.082;2023-06-22T14:36:23;25.70;99.90
3156;DHT22;1588;50.892;7.082;2023-06-22T14:41:27;25.40;99.90
3156;DHT22;1588;50.892;7.082;2023-06-22T14:46:29;25.10;99.90
3156;DHT22;1588;50.892;7.082;2023-06-22T14:51:31;24.90;99.90
3156;DHT22;1588;50.892;7.082;2023-06-22T14:56:35;24.50;99.90
3156;DHT22;1588;50.892;7.082;2023-06-22T15:01:40;24.30;99.90
3156;DHT22;1588;50.892;7.082;2023-06-22T15:06:42;24.00;99.90
3156;DHT22;1588;50.892;7.082;2023-06-22T15:11:53;23.70;99.90
3156;DHT22;1588;50.892;7.082;2023-06-22T15:17:14;23.50;99.90
3156;DHT22;1588;50.892;7.082;2023-06-22T15:22:37;23.40;99.90
3156;DHT22;1588;50.892;7.082;2023-06-22T15:28:01;23.20;99.90
3156;DHT22;1588;50.892;7.082;2023-06-22T15:33:24;22.90;99.90
3156;DHT22;1588;50.892;7.082;2023-06-22T15:44:59;22.50;99.90
3156;DHT22;1588;50.892;7.082;2023-06-22T15:50:33;22.40;99.90
3156;DHT22;1588;50.892;7.082;2023-06-22T15:56:01;22.30;99.90
3156;DHT22;1588;50.892;7.082;2023-06-22T16:01:13;22.40;99.90
3156;DHT22;1588;50.892;7.082;2023-06-22T16:06:41;22.30;99.90
3156;DHT22;1588;50.892;7.082;2023-06-22T16:12:05;22.20;99.90
3156;DHT22;1588;50.892;7.082;2023-06-22T16:17:37;22.20;99.90
3156;DHT22;1588;50.892;7.082;2023-06-22T16:23:29;22.20;99.90
3156;DHT22;1588;50.892;7.082;2023-06-22T16:29:27;22.20;99.90
3156;DHT22;1588;50.892;7.082;2023-06-22T16:34:51;22.30;99.90
3156;DHT22;1588;50.892;7.082;2023-06-22T16:46:12;22.40;99.90
3156;DHT22;1588;50.892;7.082;2023-06-22T17:04:29;22.20;99.90
3156;DHT22;1588;50.892;7.082;2023-06-22T17:10:11;22.40;99.90
3156;DHT22;1588;50.892;7.082;2023-06-22T17:16:11;22.40;99.90
3156;DHT22;1588;50.892;7.082;2023-06-22T17:21:49;22.60;99.90
3156;DHT22;1588;50.892;7.082;2023-06-22T17:27:09;22.60;99.90
3156;DHT22;1588;50.892;7.082;2023-06-22T17:32:40;22.60;99.90
3156;DHT22;1588;50.892;7.082;2023-06-22T17:38:41;22.60;99.90
3156;DHT22;1588;50.892;7.082;2023-06-22T17:44:00;22.50;99.90
3156;DHT22;1588;50.892;7.082;2023-06-22T17:49:06;22.40;99.90
3156;DHT22;1588;50.892;7.082;2023-06-22T17:54:10;22.30;99.90
3156;DHT22;1588;50.892;7.082;2023-06-22T17:59:13;22.30;99.90
3156;DHT22;1588;50.892;7.082;2023-06-22T18:04:22;22.20;99.90
3156;DHT22;1588;50.892;7.082;2023-06-22T18:09:35;22.10;99.90
3156;DHT22;1588;50.892;7.082;2023-06-22T18:14:41;22.10;99.90
3156;DHT22;1588;50.892;7.082;2023-06-22T18:19:48;22.00;99.90
3156;DHT22;1588;50.892;7.082;2023-06-22T18:25:04;22.10;99.90
3156;DHT22;1588;50.892;7.082;2023-06-22T18:30:11;22.10;99.90
3156;DHT22;1588;50.892;7.082;2023-06-22T18:35:23;22.10;99.90
3156;DHT22;1588;50.892;7.082;2023-06-22T18:40:33;22.00;99.90
3156;DHT22;1588;50.892;7.082;2023-06-22T18:45:39;21.90;99.90
3156;DHT22;1588;50.892;7.082;2023-06-22T18:50:43;21.80;99.90
3156;DHT22;1588;50.892;7.082;2023-06-22T18:55:50;21.70;99.90
3156;DHT22;1588;50.892;7.082;2023-06-22T19:00:54;21.40;99.90
3156;DHT22;1588;50.892;7.082;2023-06-22T19:12:20;20.80;99.90
3156;DHT22;1588;50.892;7.082;2023-06-22T19:17:23;20.70;99.90
3156;DHT22;1588;50.892;7.082;2023-06-22T19:22:43;20.60;99.90
3156;DHT22;1588;50.892;7.082;2023-06-22T19:27:54;20.40;99.90
3156;DHT22;1588;50.892;7.082;2023-06-22T19:32:56;20.20;99.90
3156;DHT22;1588;50.892;7.082;2023-06-22T19:38:08;20.20;99.90
3156;DHT22;1588;50.892;7.082;2023-06-22T19:43:17;20.10;99.90
3156;DHT22;1588;50.892;7.082;2023-06-22T19:48:24;20.00;99.90
3156;DHT22;1588;50.892;7.082;2023-06-22T19:53:41;19.80;99.90
3156;DHT22;1588;50.892;7.082;2023-06-22T19:59:13;19.70;99.90
3156;DHT22;1588;50.892;7.082;2023-06-22T20:04:47;19.40;99.90
3156;DHT22;1588;50.892;7.082;2023-06-22T20:15:23;19.10;99.90
3156;DHT22;1588;50.892;7.082;2023-06-22T20:20:32;18.80;99.90
3156;DHT22;1588;50.892;7.082;2023-06-22T20:25:41;18.70;99.90
3156;DHT22;1588;50.892;7.082;2023-06-22T20:31:03;18.60;99.90
3156;DHT22;1588;50.892;7.082;2023-06-22T20:36:13;18.40;99.90
3156;DHT22;1588;50.892;7.082;2023-06-22T20:41:29;18.20;99.90
3156;DHT22;1588;50.892;7.082;2023-06-22T20:46:41;18.00;99.90
3156;DHT22;1588;50.892;7.082;2023-06-22T20:51:51;17.90;99.90
3156;DHT22;1588;50.892;7.082;2023-06-22T20:57:02;17.90;99.90
3156;DHT22;1588;50.892;7.082;2023-06-22T21:02:09;17.80;99.90
3156;DHT22;1588;50.892;7.082;2023-06-22T21:07:31;17.80;99.90
3156;DHT22;1588;50.892;7.082;2023-06-22T21:12:43;17.90;99.90
3156;DHT22;1588;50.892;7.082;2023-06-22T21:17:58;17.90;99.90
3156;DHT22;1588;50.892;7.082;2023-06-22T21:23:06;18.00;99.90
3156;DHT22;1588;50.892;7.082;2023-06-22T21:28:38;18.00;99.90
3156;DHT22;1588;50.892;7.082;2023-06-22T21:33:42;18.00;99.90
3156;DHT22;1588;50.892;7.082;2023-06-22T21:38:44;18.10;99.90
3156;DHT22;1588;50.892;7.082;2023-06-22T21:43:53;18.00;99.90
3156;DHT22;1588;50.892;7.082;2023-06-22T21:49:06;18.00;99.90
3156;DHT22;1588;50.892;7.082;2023-06-22T21:54:09;18.00;99.90
3156;DHT22;1588;50.892;7.082;2023-06-22T21:59:16;18.00;99.90
3156;DHT22;1588;50.892;7.082;2023-06-22T22:04:24;18.00;99.90
3156;DHT22;1588;50.892;7.082;2023-06-22T22:09:29;18.00;99.90
3156;DHT22;1588;50.892;7.082;2023-06-22T22:14:32;18.10;99.90
3156;DHT22;1588;50.892;7.082;2023-06-22T22:19:41;18.10;99.90
3156;DHT22;1588;50.892;7.082;2023-06-22T22:24:47;18.00;99.90
3156;DHT22;1588;50.892;7.082;2023-06-22T22:29:49;18.10;99.90
3156;DHT22;1588;50.892;7.082;2023-06-22T22:34:56;18.10;99.90
3156;DHT22;1588;50.892;7.082;2023-06-22T22:39:59;18.10;99.90
3156;DHT22;1588;50.892;7.082;2023-06-22T22:45:06;18.10;99.90
3156;DHT22;1588;50.892;7.082;2023-06-22T22:50:10;18.10;99.90
3156;DHT22;1588;50.892;7.082;2023-06-22T22:55:16;18.10;99.90
3156;DHT22;1588;50.892;7.082;2023-06-22T23:00:19;18.10;99.90
3156;DHT22;1588;50.892;7.082;2023-06-22T23:05:26;18.10;99.90
3156;DHT22;1588;50.892;7.082;2023-06-22T23:10:28;18.00;99.90
3156;DHT22;1588;50.892;7.082;2023-06-22T23:15:39;18.00;99.90
3156;DHT22;1588;50.892;7.082;2023-06-22T23:20:46;17.90;99.90
3156;DHT22;1588;50.892;7.082;2023-06-22T23:25:48;17.80;99.90
3156;DHT22;1588;50.892;7.082;2023-06-22T23:30:53;17.70;99.90
3156;DHT22;1588;50.892;7.082;2023-06-22T23:36:00;17.60;99.90
3156;DHT22;1588;50.892;7.082;2023-06-22T23:41:08;17.60;99.90
3156;DHT22;1588;50.892;7.082;2023-06-22T23:46:11;17.60;99.90
3156;DHT22;1588;50.892;7.082;2023-06-22T23:51:15;17.60;99.90
3156;DHT22;1588;50.892;7.082;2023-06-22T23:56:17;17.60;99.90
